createdAt,value
2019-03-23T00:01:36.190Z,97.38
2019-03-23T00:04:26.796Z,96.52
2019-03-23T00:07:17.664Z,96.22
2019-03-23T00:10:08.554Z,95.96
2019-03-23T00:12:59.427Z,95.54
2019-03-23T00:15:50.318Z,95.72
2019-03-23T00:18:41.187Z,96.09
2019-03-23T00:21:31.734Z,96.37
2019-03-23T00:24:22.748Z,96.98
2019-03-23T00:27:14.796Z,96.99
2019-03-23T00:30:05.980Z,97.42
2019-03-23T00:32:57.118Z,97.73
2019-03-23T00:35:48.214Z,97.05
2019-03-23T00:38:39.352Z,97.08
2019-03-23T00:41:30.371Z,96.62
2019-03-23T00:44:21.243Z,96.31
2019-03-23T00:47:12.016Z,96.79
2019-03-23T00:50:02.801Z,96.94
2019-03-23T00:52:53.615Z,97.30
2019-03-23T00:55:44.327Z,97.66
2019-03-23T00:58:35.099Z,98.56
2019-03-23T01:01:26.025Z,98.34
2019-03-23T01:04:16.487Z,98.37
2019-03-23T01:07:08.171Z,98.57
2019-03-23T01:09:58.900Z,98.77
2019-03-23T01:12:50.738Z,99.61
2019-03-23T01:15:41.485Z,99.39
2019-03-23T01:18:32.423Z,98.95
2019-03-23T01:21:23.344Z,98.82
2019-03-23T01:24:14.064Z,99.14
2019-03-23T01:27:05.038Z,100.00
2019-03-23T01:29:56.256Z,100.00
2019-03-23T01:32:47.146Z,100.00
2019-03-23T01:35:37.898Z,100.00
2019-03-23T01:38:28.439Z,100.00
2019-03-23T01:41:19.362Z,100.00
2019-03-23T01:44:10.992Z,100.00
2019-03-23T01:47:01.789Z,100.00
2019-03-23T01:49:52.536Z,100.00
2019-03-23T01:52:43.590Z,100.00
2019-03-23T01:55:35.175Z,100.00
2019-03-23T01:58:26.032Z,100.00
2019-03-23T02:01:16.736Z,100.00
2019-03-23T02:04:07.557Z,100.00
2019-03-23T02:06:58.130Z,100.00
2019-03-23T02:09:49.455Z,100.00
2019-03-23T02:12:40.386Z,100.00
2019-03-23T02:15:31.420Z,100.00
2019-03-23T02:18:22.375Z,100.00
2019-03-23T02:21:13.351Z,100.00
2019-03-23T02:24:04.136Z,100.00
2019-03-23T02:26:55.015Z,100.00
2019-03-23T02:29:45.645Z,100.00
2019-03-23T02:32:36.510Z,100.00
2019-03-23T02:35:27.091Z,100.00
2019-03-23T02:38:20.622Z,100.00
2019-03-23T02:41:11.143Z,100.00
2019-03-23T02:44:06.094Z,100.00
2019-03-23T02:46:56.572Z,100.00
2019-03-23T02:49:48.003Z,100.00
2019-03-23T02:52:38.868Z,100.00
2019-03-23T02:55:29.619Z,100.00
2019-03-23T02:58:21.789Z,100.00
2019-03-23T03:01:13.548Z,100.00
2019-03-23T03:04:04.497Z,100.00
2019-03-23T03:06:55.779Z,100.00
2019-03-23T03:09:46.591Z,100.00
2019-03-23T03:12:37.412Z,100.00
2019-03-23T03:15:28.187Z,100.00
2019-03-23T03:18:19.031Z,100.00
2019-03-23T03:21:09.984Z,100.00
2019-03-23T03:24:01.025Z,100.00
2019-03-23T03:26:51.940Z,100.00
2019-03-23T03:29:42.868Z,100.00
2019-03-23T03:32:33.687Z,100.00
2019-03-23T03:35:25.765Z,100.00
2019-03-23T03:38:16.321Z,100.00
2019-03-23T03:41:07.118Z,100.00
2019-03-23T03:43:57.645Z,100.00
2019-03-23T03:46:48.196Z,100.00
2019-03-23T03:49:38.942Z,100.00
2019-03-23T03:52:29.973Z,100.00
2019-03-23T03:55:20.486Z,100.00
2019-03-23T03:58:11.339Z,99.27
2019-03-23T04:01:02.070Z,98.23
2019-03-23T04:03:52.804Z,97.25
2019-03-23T04:06:44.138Z,96.58
2019-03-23T04:09:35.897Z,95.55
2019-03-23T04:12:26.708Z,93.60
2019-03-23T04:15:17.779Z,93.26
2019-03-23T04:18:08.302Z,93.09
2019-03-23T04:20:59.123Z,92.65
2019-03-23T04:23:49.947Z,92.87
2019-03-23T04:26:40.684Z,93.34
2019-03-23T04:29:31.557Z,93.92
2019-03-23T04:32:22.677Z,94.56
2019-03-23T04:35:13.335Z,94.83
2019-03-23T04:38:03.913Z,95.38
2019-03-23T04:40:54.744Z,95.53
2019-03-23T04:43:45.757Z,95.92
2019-03-23T04:46:36.581Z,96.13
2019-03-23T04:49:27.430Z,96.33
2019-03-23T04:52:18.329Z,94.98
2019-03-23T04:55:10.750Z,94.13
2019-03-23T04:58:01.819Z,93.42
2019-03-23T05:00:52.917Z,91.91
2019-03-23T05:03:45.441Z,89.31
2019-03-23T05:06:36.315Z,87.90
2019-03-23T05:09:27.226Z,85.79
2019-03-23T05:12:18.294Z,83.77
2019-03-23T05:15:09.032Z,82.29
2019-03-23T05:17:59.752Z,79.37
2019-03-23T05:20:50.553Z,76.91
2019-03-23T05:23:41.346Z,71.45
2019-03-23T05:26:32.098Z,64.74
2019-03-23T05:29:22.828Z,58.37
2019-03-23T05:32:13.602Z,51.48
2019-03-23T05:35:04.466Z,51.48
2019-03-23T05:37:55.105Z,48.22
2019-03-23T05:40:45.922Z,44.90
2019-03-23T05:43:36.825Z,42.31
2019-03-23T05:46:28.060Z,39.72
2019-03-23T05:49:18.927Z,39.08
2019-03-23T05:52:12.899Z,37.66
2019-03-23T05:55:04.133Z,36.82
2019-03-23T05:57:55.841Z,36.13
2019-03-23T06:00:47.259Z,35.63
2019-03-23T06:03:38.825Z,35.60
2019-03-23T06:06:30.431Z,34.41
2019-03-23T06:09:22.375Z,33.98
2019-03-23T06:12:13.904Z,33.80
2019-03-23T06:15:07.303Z,34.52
2019-03-23T06:17:58.946Z,34.25
2019-03-23T06:20:50.799Z,32.69
2019-03-23T06:23:42.368Z,32.90
2019-03-23T06:26:33.956Z,33.83
2019-03-23T06:29:25.407Z,35.96
2019-03-23T06:32:17.031Z,36.35
2019-03-23T06:35:09.668Z,35.98
2019-03-23T06:38:00.986Z,34.36
2019-03-23T06:40:52.482Z,33.16
2019-03-23T06:43:43.783Z,34.70
2019-03-23T06:46:35.368Z,32.90
2019-03-23T06:49:26.517Z,32.20
2019-03-23T06:52:17.932Z,32.23
2019-03-23T06:55:09.337Z,31.69
2019-03-23T06:58:00.429Z,31.69
2019-03-23T07:00:51.747Z,31.75
2019-03-23T07:03:43.103Z,31.22
2019-03-23T07:06:34.482Z,31.73
2019-03-23T07:09:25.879Z,31.47
2019-03-23T07:12:17.111Z,31.58
2019-03-23T07:15:19.404Z,28.11
2019-03-23T07:18:02.159Z,28.08
2019-03-23T07:20:53.575Z,25.61
2019-03-23T07:23:46.163Z,25.48
2019-03-23T07:26:37.541Z,23.54
2019-03-23T07:29:29.028Z,24.44
2019-03-23T07:32:20.433Z,24.28
2019-03-23T07:35:12.126Z,24.31
2019-03-23T07:38:03.651Z,25.32
2019-03-23T07:40:54.853Z,25.40
2019-03-23T07:43:46.002Z,24.72
2019-03-23T07:46:37.370Z,22.42
2019-03-23T07:49:28.642Z,23.29
2019-03-23T07:52:20.111Z,23.33
2019-03-23T07:55:13.225Z,21.88
2019-03-23T07:58:04.705Z,20.87
2019-03-23T08:00:56.140Z,21.61
2019-03-23T08:03:47.510Z,20.54
2019-03-23T08:06:39.011Z,20.68
2019-03-23T08:09:37.568Z,18.75
2019-03-23T08:12:23.346Z,18.42
2019-03-23T08:15:14.545Z,20.44
2019-03-23T08:18:06.049Z,20.44
2019-03-23T08:20:57.557Z,21.32
2019-03-23T08:23:48.956Z,22.05
2019-03-23T08:26:40.791Z,22.73
2019-03-23T08:29:32.092Z,24.99
2019-03-23T08:32:23.451Z,26.42
2019-03-23T08:35:14.872Z,27.86
2019-03-23T08:38:06.457Z,27.19
2019-03-23T08:40:57.924Z,27.61
2019-03-23T08:43:49.485Z,28.27
2019-03-23T08:46:41.036Z,31.29
2019-03-23T08:49:33.728Z,28.17
2019-03-23T08:52:24.537Z,28.11
2019-03-23T08:55:15.546Z,29.85
2019-03-23T08:58:06.717Z,31.40
2019-03-23T09:00:58.518Z,29.08
2019-03-23T09:03:52.607Z,29.43
2019-03-23T09:06:41.835Z,29.14
2019-03-23T09:09:33.381Z,27.20
2019-03-23T09:12:24.976Z,26.35
2019-03-23T09:15:16.382Z,24.21
2019-03-23T09:18:07.556Z,23.76
2019-03-23T09:20:58.923Z,22.36
2019-03-23T09:23:50.344Z,20.00
2019-03-23T09:26:41.672Z,20.18
2019-03-23T09:29:33.045Z,20.54
2019-03-23T09:32:24.316Z,22.19
2019-03-23T09:35:16.037Z,23.12
2019-03-23T09:38:07.445Z,23.25
2019-03-23T09:40:58.722Z,24.09
2019-03-23T09:43:51.129Z,25.93
2019-03-23T09:46:43.504Z,27.40
2019-03-23T09:49:34.236Z,29.46
2019-03-23T09:52:25.147Z,29.05
2019-03-23T09:55:15.928Z,30.40
2019-03-23T09:58:06.750Z,32.62
2019-03-23T10:00:57.531Z,32.23
2019-03-23T10:03:48.434Z,31.73
2019-03-23T10:06:39.261Z,31.85
2019-03-23T10:09:30.176Z,33.06
2019-03-23T10:12:20.902Z,32.74
2019-03-23T10:15:11.978Z,33.40
2019-03-23T10:18:03.099Z,32.49
2019-03-23T10:20:54.357Z,34.35
2019-03-23T10:23:44.985Z,34.70
2019-03-23T10:26:35.945Z,35.52
2019-03-23T10:29:26.676Z,36.95
2019-03-23T10:32:17.672Z,35.93
2019-03-23T10:35:09.091Z,36.33
2019-03-23T10:37:59.987Z,37.55
2019-03-23T10:40:53.403Z,36.79
2019-03-23T10:43:44.245Z,36.55
2019-03-23T10:46:35.042Z,37.83
2019-03-23T10:49:30.289Z,37.58
2019-03-23T10:52:26.238Z,38.08
2019-03-23T10:55:18.877Z,38.90
2019-03-23T10:58:09.850Z,36.99
2019-03-23T11:01:00.665Z,38.29
2019-03-23T11:03:51.577Z,39.30
2019-03-23T11:06:42.405Z,37.57
2019-03-23T11:09:33.351Z,40.61
2019-03-23T11:12:24.198Z,40.68
2019-03-23T11:15:16.547Z,39.22
2019-03-23T11:18:07.421Z,39.89
2019-03-23T11:21:00.116Z,38.18
2019-03-23T11:23:50.799Z,38.86
2019-03-23T11:26:41.526Z,39.21
2019-03-23T11:29:32.312Z,38.52
2019-03-23T11:32:23.137Z,36.19
2019-03-23T11:35:14.122Z,40.96
2019-03-23T11:38:05.046Z,39.81
2019-03-23T11:40:55.700Z,38.71
2019-03-23T11:43:46.533Z,39.10
2019-03-23T11:46:37.814Z,39.96
2019-03-23T11:49:28.777Z,40.41
2019-03-23T11:52:19.646Z,41.02
2019-03-23T11:55:10.806Z,40.04
2019-03-23T11:58:02.040Z,40.10
2019-03-23T12:00:52.956Z,39.74
2019-03-23T12:03:44.122Z,38.37
2019-03-23T12:06:34.890Z,37.25
2019-03-23T12:09:26.025Z,39.01
2019-03-23T12:12:16.977Z,38.25
2019-03-23T12:15:08.664Z,39.20
2019-03-23T12:17:59.502Z,38.29
2019-03-23T12:20:50.339Z,37.42
2019-03-23T12:23:41.046Z,39.21
2019-03-23T12:26:31.800Z,38.00
2019-03-23T12:29:22.695Z,39.06
2019-03-23T12:32:13.637Z,38.08
2019-03-23T12:35:04.421Z,38.18
2019-03-23T12:37:55.566Z,36.87
2019-03-23T12:40:46.643Z,36.09
2019-03-23T12:43:37.536Z,36.14
2019-03-23T12:46:28.342Z,35.61
2019-03-23T12:49:19.102Z,37.21
2019-03-23T12:52:09.611Z,34.56
2019-03-23T12:55:00.553Z,36.26
2019-03-23T12:57:51.220Z,37.61
2019-03-23T13:00:43.461Z,38.60
2019-03-23T13:03:33.910Z,36.60
2019-03-23T13:06:25.042Z,36.33
2019-03-23T13:09:15.793Z,37.10
2019-03-23T13:12:06.671Z,34.51
2019-03-23T13:14:58.118Z,34.00
2019-03-23T13:17:49.032Z,34.42
2019-03-23T13:20:39.942Z,34.79
2019-03-23T13:23:30.993Z,34.42
2019-03-23T13:26:21.919Z,35.51
2019-03-23T13:29:12.544Z,33.26
2019-03-23T13:32:03.711Z,34.95
2019-03-23T13:34:54.607Z,37.20
2019-03-23T13:37:45.624Z,39.29
2019-03-23T13:40:36.497Z,40.11
2019-03-23T13:43:27.352Z,42.04
2019-03-23T13:46:18.432Z,40.40
2019-03-23T13:49:08.991Z,40.74
2019-03-23T13:52:01.770Z,40.37
2019-03-23T13:54:52.581Z,39.24
2019-03-23T13:57:43.480Z,40.24
2019-03-23T14:00:34.099Z,41.82
2019-03-23T14:03:25.038Z,42.86
2019-03-23T14:06:15.854Z,42.93
2019-03-23T14:09:10.641Z,42.86
2019-03-23T14:12:02.802Z,42.36
2019-03-23T14:14:53.671Z,41.32
2019-03-23T14:17:44.613Z,40.82
2019-03-23T14:20:35.448Z,41.40
2019-03-23T14:23:26.421Z,40.78
2019-03-23T14:26:17.501Z,41.44
2019-03-23T14:29:12.291Z,42.46
2019-03-23T14:32:03.224Z,41.88
2019-03-23T14:34:53.767Z,42.25
2019-03-23T14:37:44.614Z,42.28
2019-03-23T14:40:35.598Z,42.40
2019-03-23T14:43:26.387Z,42.66
2019-03-23T14:46:17.313Z,41.67
2019-03-23T14:49:08.237Z,42.43
2019-03-23T14:51:59.198Z,42.47
2019-03-23T14:54:49.972Z,42.08
2019-03-23T14:57:40.712Z,42.00
2019-03-23T15:00:33.041Z,42.94
2019-03-23T15:03:26.042Z,43.17
2019-03-23T15:06:16.934Z,43.88
2019-03-23T15:09:08.483Z,44.34
2019-03-23T15:11:59.163Z,45.05
2019-03-23T15:14:50.136Z,45.13
2019-03-23T15:17:48.461Z,44.55
2019-03-23T15:20:33.199Z,42.95
2019-03-23T15:23:23.727Z,42.42
2019-03-23T15:26:14.506Z,42.72
2019-03-23T15:29:05.327Z,42.22
2019-03-23T15:31:56.089Z,41.83
2019-03-23T15:34:46.987Z,41.34
2019-03-23T15:37:37.792Z,42.20
2019-03-23T15:40:28.676Z,41.94
2019-03-23T15:43:19.501Z,43.65
2019-03-23T15:46:10.429Z,45.39
2019-03-23T15:49:01.405Z,45.43
2019-03-23T15:51:53.014Z,46.26
2019-03-23T15:54:44.020Z,46.59
2019-03-23T15:57:34.855Z,46.44
2019-03-23T16:00:25.400Z,45.93
2019-03-23T16:03:16.105Z,46.62
2019-03-23T16:06:06.660Z,47.42
2019-03-23T16:08:57.538Z,46.60
2019-03-23T16:11:48.402Z,46.63
2019-03-23T16:14:39.229Z,46.83
2019-03-23T16:17:29.875Z,46.97
2019-03-23T16:20:20.625Z,46.68
2019-03-23T16:23:11.465Z,47.31
2019-03-23T16:26:02.309Z,46.55
2019-03-23T16:28:53.130Z,46.04
2019-03-23T16:31:44.419Z,45.84
2019-03-23T16:34:35.428Z,46.22
2019-03-23T16:37:26.130Z,48.31
2019-03-23T16:40:16.705Z,49.06
2019-03-23T16:43:07.316Z,47.88
2019-03-23T16:45:58.138Z,46.78
2019-03-23T16:48:48.983Z,47.35
2019-03-23T16:51:39.824Z,47.05
2019-03-23T16:54:30.604Z,46.48
2019-03-23T16:57:21.434Z,46.23
2019-03-23T17:00:14.327Z,48.83
2019-03-23T17:03:05.438Z,47.71
2019-03-23T17:05:56.078Z,47.44
2019-03-23T17:08:46.929Z,46.61
2019-03-23T17:11:37.914Z,45.94
2019-03-23T17:14:28.765Z,46.21
2019-03-23T17:17:19.434Z,46.20
2019-03-23T17:20:10.194Z,46.07
2019-03-23T17:23:02.240Z,46.13
2019-03-23T17:25:53.321Z,45.43
2019-03-23T17:28:44.448Z,45.32
2019-03-23T17:31:36.454Z,45.44
2019-03-23T17:34:27.753Z,44.97
2019-03-23T17:37:18.531Z,45.14
2019-03-23T17:40:09.166Z,44.83
2019-03-23T17:43:05.816Z,45.07
2019-03-23T17:45:53.524Z,45.14
2019-03-23T17:48:44.188Z,45.30
2019-03-23T17:51:35.059Z,45.02
2019-03-23T17:54:25.948Z,45.23
2019-03-23T17:57:16.813Z,44.91
2019-03-23T18:00:08.826Z,45.13
2019-03-23T18:02:59.764Z,44.38
2019-03-23T18:05:50.582Z,44.52
2019-03-23T18:08:41.388Z,44.32
2019-03-23T18:11:32.209Z,43.70
2019-03-23T18:14:22.996Z,43.99
2019-03-23T18:17:13.710Z,44.45
2019-03-23T18:20:04.888Z,44.65
2019-03-23T18:22:56.098Z,44.36
2019-03-23T18:25:47.220Z,44.48
2019-03-23T18:28:38.186Z,44.31
2019-03-23T18:31:29.030Z,44.06
2019-03-23T18:34:21.001Z,44.35
2019-03-23T18:37:12.147Z,44.57
2019-03-23T18:40:02.969Z,44.65
2019-03-23T18:42:53.790Z,44.47
2019-03-23T18:45:44.644Z,44.47
2019-03-23T18:48:35.321Z,44.62
2019-03-23T18:51:26.300Z,44.50
2019-03-23T18:54:17.208Z,44.17
2019-03-23T18:57:08.151Z,44.21
2019-03-23T18:59:59.150Z,44.25
2019-03-23T19:02:49.925Z,44.36
2019-03-23T19:05:40.792Z,44.03
2019-03-23T19:08:31.608Z,44.07
2019-03-23T19:11:22.607Z,44.81
2019-03-23T19:14:13.430Z,45.00
2019-03-23T19:17:04.086Z,48.42
2019-03-23T19:19:55.144Z,46.49
2019-03-23T19:22:46.123Z,46.48
2019-03-23T19:25:38.435Z,46.80
2019-03-23T19:28:29.237Z,46.33
2019-03-23T19:31:19.966Z,46.75
2019-03-23T19:34:10.790Z,46.60
2019-03-23T19:37:01.493Z,47.12
2019-03-23T19:39:52.752Z,47.14
2019-03-23T19:42:43.627Z,47.88
2019-03-23T19:45:34.327Z,54.61
2019-03-23T19:48:25.173Z,63.32
2019-03-23T19:51:16.101Z,65.88
2019-03-23T19:54:06.941Z,70.16
2019-03-23T19:56:57.789Z,72.18
2019-03-23T19:59:48.748Z,74.11
2019-03-23T20:02:39.434Z,75.80
2019-03-23T20:05:30.379Z,77.04
2019-03-23T20:08:21.602Z,78.03
2019-03-23T20:11:12.527Z,78.34
2019-03-23T20:14:03.363Z,78.54
2019-03-23T20:16:54.123Z,79.28
2019-03-23T20:19:44.717Z,79.09
2019-03-23T20:22:35.681Z,78.50
2019-03-23T20:25:26.306Z,78.71
2019-03-23T20:28:17.609Z,77.65
2019-03-23T20:31:08.460Z,77.18
2019-03-23T20:33:59.271Z,75.49
2019-03-23T20:36:51.173Z,74.15
2019-03-23T20:39:41.895Z,73.37
2019-03-23T20:42:32.854Z,71.83
2019-03-23T20:45:29.415Z,71.52
2019-03-23T20:48:20.187Z,70.72
2019-03-23T20:51:11.040Z,70.11
2019-03-23T20:54:01.672Z,69.68
2019-03-23T20:56:53.063Z,69.84
2019-03-23T20:59:44.461Z,68.90
2019-03-23T21:02:34.987Z,68.89
2019-03-23T21:05:33.912Z,68.19
2019-03-23T21:08:18.769Z,67.11
2019-03-23T21:11:09.586Z,67.99
2019-03-23T21:14:00.711Z,68.21
2019-03-23T21:16:51.749Z,68.39
2019-03-23T21:19:42.366Z,68.06
2019-03-23T21:22:33.549Z,68.93
2019-03-23T21:25:24.394Z,67.96
2019-03-23T21:28:15.407Z,67.64
2019-03-23T21:31:06.317Z,67.52
2019-03-23T21:33:57.155Z,66.36
2019-03-23T21:36:47.965Z,65.26
2019-03-23T21:39:38.639Z,64.95
2019-03-23T21:42:29.451Z,64.29
2019-03-23T21:45:20.064Z,63.68
2019-03-23T21:48:10.816Z,63.16
2019-03-23T21:51:01.729Z,63.32
2019-03-23T21:53:52.350Z,63.85
2019-03-23T21:56:44.483Z,64.16
2019-03-23T21:59:35.451Z,65.03
2019-03-23T22:02:26.166Z,67.25
2019-03-23T22:05:17.087Z,69.52
2019-03-23T22:08:07.740Z,71.80
2019-03-23T22:10:58.510Z,73.14
2019-03-23T22:13:49.348Z,76.50
2019-03-23T22:16:40.211Z,77.80
2019-03-23T22:19:31.111Z,78.75
2019-03-23T22:22:21.855Z,80.15
2019-03-23T22:25:13.176Z,83.47
2019-03-23T22:28:03.674Z,84.45
2019-03-23T22:30:54.616Z,85.82
2019-03-23T22:33:45.748Z,87.39
2019-03-23T22:36:36.529Z,87.96
2019-03-23T22:39:29.028Z,88.31
2019-03-23T22:42:19.679Z,88.68
2019-03-23T22:45:10.586Z,89.22
2019-03-23T22:48:01.527Z,88.54
2019-03-23T22:50:52.549Z,86.75
2019-03-23T22:53:43.650Z,87.08
2019-03-23T22:56:35.294Z,87.16
2019-03-23T22:59:26.270Z,87.26
2019-03-23T23:02:17.120Z,87.38
2019-03-23T23:05:08.418Z,87.66
2019-03-23T23:07:59.249Z,88.13
2019-03-23T23:10:50.111Z,88.27
2019-03-23T23:13:40.944Z,88.05
2019-03-23T23:16:31.811Z,84.15
2019-03-23T23:19:22.639Z,81.17
2019-03-23T23:22:13.766Z,81.20
2019-03-23T23:25:05.880Z,80.88
2019-03-23T23:27:56.640Z,81.30
2019-03-23T23:30:47.164Z,82.50
2019-03-23T23:33:38.130Z,82.95
2019-03-23T23:36:29.459Z,82.69
2019-03-23T23:39:20.335Z,83.19
2019-03-23T23:42:11.331Z,82.68
2019-03-23T23:45:02.445Z,81.47
2019-03-23T23:47:53.364Z,80.70
2019-03-23T23:50:44.070Z,79.72
2019-03-23T23:53:34.987Z,79.05
2019-03-23T23:56:25.647Z,78.32
2019-03-23T23:59:16.376Z,77.86
